createdAt,value
2022-08-09T00:04:34.503Z,2.20
2022-08-09T00:07:26.447Z,2.20
2022-08-09T00:10:02.322Z,2.20
2022-08-09T00:12:34.912Z,1.80
2022-08-09T00:15:59.287Z,1.50
2022-08-09T00:19:11.075Z,2.10
2022-08-09T00:22:39.471Z,1.80
2022-08-09T00:30:09.989Z,1.90
2022-08-09T00:32:42.747Z,1.90
2022-08-09T00:36:12.169Z,1.70
2022-08-09T00:39:04.709Z,1.90
2022-08-09T00:44:16.793Z,1.60
2022-08-09T00:45:59.867Z,1.90
2022-08-09T00:49:25.117Z,1.70
2022-08-09T00:52:40.467Z,1.60
2022-08-09T00:58:05.029Z,2.10
2022-08-09T01:00:39.511Z,1.90
2022-08-09T01:07:06.231Z,2.40
2022-08-09T01:10:04.490Z,2.90
2022-08-09T01:13:02.134Z,2.30
2022-08-09T01:19:51.678Z,2.40
2022-08-09T01:24:02.744Z,2.20
2022-08-09T01:29:41.242Z,2.30
2022-08-09T01:32:46.205Z,2.00
2022-08-09T01:51:58.246Z,2.40
2022-08-09T01:58:08.278Z,2.20
2022-08-09T02:00:43.471Z,2.10
2022-08-09T02:03:21.757Z,1.90
2022-08-09T02:06:14.899Z,2.00
2022-08-09T02:09:23.706Z,2.60
2022-08-09T02:12:21.886Z,2.30
2022-08-09T02:18:23.804Z,2.00
2022-08-09T02:21:00.424Z,2.20
2022-08-09T02:24:09.984Z,2.00
2022-08-09T02:27:20.367Z,1.90
2022-08-09T02:36:15.864Z,2.30
2022-08-09T02:39:14.564Z,2.50
2022-08-09T02:41:55.472Z,2.90
2022-08-09T02:44:54.054Z,2.50
2022-08-09T02:47:29.036Z,2.20
2022-08-09T02:50:25.455Z,2.50
2022-08-09T02:53:26.580Z,2.60
2022-08-09T02:56:01.464Z,3.00
2022-08-09T02:59:09.581Z,2.70
2022-08-09T03:02:05.522Z,2.50
2022-08-09T03:04:40.859Z,2.60
2022-08-09T03:13:15.712Z,2.20
2022-08-09T03:16:07.251Z,2.90
2022-08-09T03:19:52.737Z,2.30
2022-08-09T03:23:15.089Z,2.40
2022-08-09T03:26:31.968Z,2.40
2022-08-09T03:29:22.657Z,2.50
2022-08-09T03:32:14.924Z,2.40
2022-08-09T03:35:05.079Z,2.20
2022-08-09T03:37:58.678Z,2.20
2022-08-09T03:41:05.881Z,2.20
2022-08-09T03:44:07.882Z,2.30
2022-08-09T03:47:17.495Z,2.20
2022-08-09T03:50:44.386Z,2.20
2022-08-09T03:53:37.087Z,2.40
2022-08-09T03:56:28.971Z,2.20
2022-08-09T03:59:27.357Z,2.50
2022-08-09T04:02:35.709Z,2.10
2022-08-09T04:05:27.986Z,2.50
2022-08-09T04:08:54.500Z,2.40
2022-08-09T04:11:46.939Z,2.60
2022-08-09T04:14:53.759Z,2.70
2022-08-09T04:17:16.736Z,2.40
2022-08-09T04:20:08.840Z,2.40
2022-08-09T04:26:06.871Z,2.50
2022-08-09T04:29:32.776Z,2.30
2022-08-09T04:32:36.947Z,2.80
2022-08-09T04:35:29.366Z,2.80
2022-08-09T04:41:12.035Z,3.00
2022-08-09T04:44:06.703Z,2.30
2022-08-09T04:46:58.434Z,2.70
2022-08-09T04:49:54.816Z,2.60
2022-08-09T04:53:05.915Z,2.70
2022-08-09T04:56:02.904Z,2.50
2022-08-09T05:04:53.175Z,2.70
2022-08-09T05:07:31.747Z,2.40
2022-08-09T05:13:49.569Z,2.30
2022-08-09T05:16:21.652Z,2.60
2022-08-09T05:23:54.130Z,2.50
2022-08-09T05:25:41.738Z,2.20
2022-08-09T05:29:17.753Z,2.30
2022-08-09T05:31:57.737Z,2.40
2022-08-09T05:34:48.474Z,2.80
2022-08-09T05:41:03.507Z,2.50
2022-08-09T05:43:36.517Z,2.70
2022-08-09T05:46:08.871Z,2.60
2022-08-09T05:52:10.114Z,2.50
2022-08-09T06:05:56.970Z,2.20
2022-08-09T06:08:52.696Z,2.80
2022-08-09T06:12:20.021Z,2.30
2022-08-09T06:15:28.535Z,2.70
2022-08-09T06:18:25.507Z,2.50
2022-08-09T06:21:33.171Z,2.60
2022-08-09T06:24:22.754Z,2.60
2022-08-09T06:30:09.718Z,2.40
2022-08-09T06:36:07.723Z,2.50
2022-08-09T06:44:57.476Z,1.80
2022-08-09T06:47:40.049Z,2.30
2022-08-09T06:50:50.585Z,2.00
2022-08-09T06:54:01.038Z,1.90
2022-08-09T06:56:33.640Z,2.00
2022-08-09T07:02:14.179Z,2.30
2022-08-09T07:07:59.727Z,2.30
2022-08-09T07:13:28.251Z,2.20
2022-08-09T07:16:57.974Z,1.90
2022-08-09T07:19:55.618Z,2.30
2022-08-09T07:22:35.200Z,2.20
2022-08-09T07:25:43.778Z,2.50
2022-08-09T07:28:19.196Z,2.10
2022-08-09T07:31:38.166Z,2.70
2022-08-09T07:34:29.009Z,2.40
2022-08-09T07:38:12.101Z,2.40
2022-08-09T07:41:23.092Z,2.20
2022-08-09T07:47:23.601Z,3.40
2022-08-09T07:50:34.627Z,3.00
2022-08-09T07:53:36.453Z,2.60
2022-08-09T07:59:52.156Z,2.70
2022-08-09T08:12:29.210Z,3.00
2022-08-09T08:18:43.950Z,3.10
2022-08-09T08:24:32.162Z,3.30
2022-08-09T08:30:20.263Z,3.10
2022-08-09T08:32:53.804Z,3.20
2022-08-09T08:39:51.242Z,3.60
2022-08-09T08:46:03.805Z,3.50
2022-08-09T08:48:51.592Z,3.20
2022-08-09T08:52:00.517Z,3.40
2022-08-09T08:58:38.762Z,3.50
2022-08-09T09:01:53.371Z,3.90
2022-08-09T09:05:11.856Z,3.50
2022-08-09T09:08:03.893Z,3.60
2022-08-09T09:11:13.574Z,3.80
2022-08-09T09:14:08.216Z,3.50
2022-08-09T09:17:06.382Z,3.30
2022-08-09T09:20:01.071Z,4.20
2022-08-09T09:22:52.795Z,3.70
2022-08-09T09:26:03.773Z,3.60
2022-08-09T09:29:16.731Z,3.30
2022-08-09T09:35:19.684Z,3.90
2022-08-09T09:44:32.814Z,3.60
2022-08-09T09:48:22.046Z,4.30
2022-08-09T09:50:54.992Z,3.70
2022-08-09T09:56:37.817Z,3.70
2022-08-09T09:59:38.473Z,3.50
2022-08-09T10:02:11.972Z,3.60
2022-08-09T10:08:55.144Z,3.50
2022-08-09T10:12:12.353Z,3.60
2022-08-09T10:14:47.933Z,3.70
2022-08-09T10:17:57.164Z,3.30
2022-08-09T10:21:26.226Z,3.00
2022-08-09T10:24:25.552Z,3.80
2022-08-09T10:27:34.527Z,4.00
2022-08-09T10:34:32.382Z,3.80
2022-08-09T10:37:42.226Z,3.50
2022-08-09T10:40:51.009Z,3.50
2022-08-09T10:50:59.038Z,2.90
2022-08-09T10:54:02.114Z,3.10
2022-08-09T11:00:41.654Z,3.50
2022-08-09T11:07:57.145Z,4.50
2022-08-09T11:24:24.270Z,3.30
2022-08-09T11:28:04.488Z,2.70
2022-08-09T11:30:57.425Z,2.50
2022-08-09T11:33:40.102Z,3.00
2022-08-09T11:36:47.311Z,3.00
2022-08-09T11:40:04.012Z,2.70
2022-08-09T11:43:13.243Z,2.80
2022-08-09T11:46:33.008Z,2.90
2022-08-09T11:50:53.757Z,2.70
2022-08-09T11:53:57.805Z,3.50
2022-08-09T11:56:52.268Z,2.90
2022-08-09T12:00:36.203Z,3.20
2022-08-09T12:03:57.340Z,2.80
2022-08-09T12:07:09.952Z,2.70
2022-08-09T12:10:39.358Z,2.80
2022-08-09T12:17:43.239Z,3.10
2022-08-09T12:29:15.549Z,3.80
2022-08-09T12:30:36.262Z,3.30
2022-08-09T12:42:50.329Z,3.40
2022-08-09T12:45:40.805Z,3.30
2022-08-09T12:48:30.928Z,3.80
2022-08-09T12:51:52.359Z,3.30
2022-08-09T12:56:15.778Z,2.70
2022-08-09T12:58:52.890Z,3.40
2022-08-09T13:04:33.233Z,3.00
2022-08-09T13:07:32.983Z,3.30
2022-08-09T13:10:37.626Z,3.00
2022-08-09T13:13:11.127Z,2.80
2022-08-09T13:16:02.006Z,2.80
2022-08-09T13:24:53.614Z,2.70
2022-08-09T13:27:56.111Z,2.40
2022-08-09T13:30:50.968Z,2.90
2022-08-09T13:43:05.050Z,2.10
2022-08-09T13:46:42.533Z,2.50
2022-08-09T13:52:18.256Z,2.10
2022-08-09T13:55:29.012Z,2.40
2022-08-09T13:58:19.537Z,1.80
2022-08-09T14:01:55.802Z,1.90
2022-08-09T14:04:05.400Z,2.00
2022-08-09T14:06:46.571Z,2.10
2022-08-09T14:09:36.197Z,2.40
2022-08-09T14:12:34.852Z,1.90
2022-08-09T14:16:06.736Z,2.00
2022-08-09T14:21:43.586Z,1.60
2022-08-09T14:27:24.435Z,1.70
2022-08-09T14:33:59.633Z,2.00
2022-08-09T14:37:12.387Z,1.70
2022-08-09T14:43:15.935Z,1.80
2022-08-09T14:48:41.949Z,1.70
2022-08-09T14:51:42.353Z,1.70
2022-08-09T14:58:16.610Z,1.20
2022-08-09T15:04:34.078Z,1.40
2022-08-09T15:07:10.113Z,1.30
2022-08-09T15:20:02.802Z,1.50
2022-08-09T15:24:02.787Z,1.70
2022-08-09T15:26:30.724Z,1.60
2022-08-09T15:30:57.718Z,1.90
2022-08-09T15:32:33.629Z,1.60
2022-08-09T15:35:44.081Z,1.80
2022-08-09T15:38:15.875Z,1.70
2022-08-09T15:40:49.740Z,2.00
2022-08-09T15:43:40.324Z,2.10
2022-08-09T15:46:32.818Z,2.20
2022-08-09T15:52:33.455Z,2.00
2022-08-09T16:06:03.335Z,1.30
2022-08-09T16:09:13.991Z,1.70
2022-08-09T16:12:22.697Z,1.50
2022-08-09T16:19:36.530Z,1.60
2022-08-09T16:26:31.272Z,1.80
2022-08-09T16:29:11.120Z,2.40
2022-08-09T16:32:39.187Z,2.00
2022-08-09T16:35:19.119Z,2.10
2022-08-09T16:38:43.702Z,2.00
2022-08-09T16:42:02.950Z,2.40
2022-08-09T16:45:13.687Z,2.10
2022-08-09T16:48:41.535Z,2.30
2022-08-09T16:51:55.222Z,1.70
2022-08-09T16:54:45.045Z,1.80
2022-08-09T17:01:00.814Z,1.80
2022-08-09T17:03:34.153Z,1.70
2022-08-09T17:06:29.167Z,1.70
2022-08-09T17:09:44.856Z,1.60
2022-08-09T17:13:10.733Z,1.80
2022-08-09T17:16:09.313Z,1.90
2022-08-09T17:18:42.704Z,2.30
2022-08-09T17:28:44.855Z,2.10
2022-08-09T17:31:52.897Z,2.20
2022-08-09T17:35:07.764Z,2.80
2022-08-09T17:38:29.294Z,2.10
2022-08-09T17:42:41.531Z,2.30
2022-08-09T17:46:01.659Z,2.60
2022-08-09T17:49:09.737Z,2.10
2022-08-09T17:51:42.178Z,2.50
2022-08-09T17:58:03.730Z,2.30
2022-08-09T18:01:08.518Z,3.00
2022-08-09T18:04:16.662Z,2.70
2022-08-09T18:06:54.605Z,2.50
2022-08-09T18:09:46.635Z,3.20
2022-08-09T18:13:39.560Z,3.30
2022-08-09T18:16:29.254Z,3.20
2022-08-09T18:20:54.930Z,3.20
2022-08-09T18:22:51.339Z,3.10
2022-08-09T18:25:58.454Z,2.90
2022-08-09T18:30:42.346Z,3.10
2022-08-09T18:37:48.755Z,3.40
2022-08-09T18:40:27.708Z,3.30
2022-08-09T18:43:00.136Z,3.70
2022-08-09T18:46:45.944Z,3.30
2022-08-09T18:52:46.617Z,3.50
2022-08-09T18:55:29.188Z,3.40
2022-08-09T19:01:43.457Z,3.30
2022-08-09T19:05:14.916Z,3.70
2022-08-09T19:08:04.938Z,3.10
2022-08-09T19:10:39.927Z,3.40
2022-08-09T19:13:51.474Z,3.30
2022-08-09T19:16:24.139Z,3.40
2022-08-09T19:19:28.206Z,3.40
2022-08-09T19:22:18.244Z,3.50
2022-08-09T19:25:41.142Z,3.50
2022-08-09T19:28:38.056Z,3.40
2022-08-09T19:31:10.579Z,3.40
2022-08-09T19:40:19.395Z,3.80
2022-08-09T19:50:50.145Z,3.60
2022-08-09T19:53:08.415Z,3.40
2022-08-09T19:56:02.500Z,3.30
2022-08-09T20:06:29.779Z,4.00
2022-08-09T20:12:47.095Z,3.80
2022-08-09T20:16:34.394Z,3.90
2022-08-09T20:22:32.802Z,4.00
2022-08-09T20:32:28.705Z,3.90
2022-08-09T20:34:51.495Z,3.60
2022-08-09T20:37:23.821Z,4.00
2022-08-09T20:40:30.913Z,4.40
2022-08-09T20:43:24.271Z,3.90
2022-08-09T20:52:48.644Z,4.20
2022-08-09T20:55:23.891Z,3.90
2022-08-09T20:58:05.259Z,3.90
2022-08-09T21:01:50.679Z,4.30
2022-08-09T21:05:56.479Z,4.10
2022-08-09T21:08:16.473Z,3.80
2022-08-09T21:18:23.635Z,4.30
2022-08-09T21:23:51.589Z,4.40
2022-08-09T21:26:40.999Z,4.40
2022-08-09T21:29:48.555Z,4.40
2022-08-09T21:39:49.681Z,4.40
2022-08-09T21:42:45.295Z,4.20
2022-08-09T21:45:43.787Z,4.10
2022-08-09T21:48:34.451Z,4.60
2022-08-09T21:51:43.474Z,4.50
2022-08-09T21:54:33.999Z,4.40
2022-08-09T21:57:37.432Z,4.50
2022-08-09T22:00:32.680Z,4.10
2022-08-09T22:03:25.474Z,4.00
2022-08-09T22:05:58.638Z,4.20
2022-08-09T22:09:43.469Z,4.60
2022-08-09T22:16:16.345Z,4.30
2022-08-09T22:19:57.710Z,4.00
2022-08-09T22:23:10.588Z,4.70
2022-08-09T22:26:12.623Z,4.20
2022-08-09T22:29:06.787Z,3.70
2022-08-09T22:36:01.493Z,4.20
2022-08-09T22:42:16.065Z,4.10
2022-08-09T22:48:04.704Z,4.20
2022-08-09T22:48:36.029Z,4.10
2022-08-09T22:51:27.471Z,4.30
2022-08-09T22:54:35.287Z,4.50
2022-08-09T22:57:59.224Z,3.50
2022-08-09T23:01:26.324Z,3.80
2022-08-09T23:08:21.062Z,3.90
2022-08-09T23:10:38.222Z,3.70
2022-08-09T23:13:32.087Z,3.40
2022-08-09T23:19:11.749Z,3.90
2022-08-09T23:22:27.706Z,3.50
2022-08-09T23:25:34.212Z,3.90
2022-08-09T23:28:25.280Z,4.80
2022-08-09T23:37:12.325Z,3.40
2022-08-09T23:40:02.222Z,3.80
2022-08-09T23:45:41.606Z,3.70
2022-08-09T23:48:13.965Z,3.90
2022-08-09T23:51:20.923Z,4.10
2022-08-09T23:57:01.112Z,3.70
